VRN weather

Public forecast

Using degrees Celsius for public forecast. Weather courtesy of forecast.io.

Current aviation weather report (METAR) for Verona Villafranca Airport

Retrieved 2020/08/09 02:20 UTC (17 minutes ago):

LIPX 090220Z AUTO 32002KT 9999 NCD 20/16 Q1017

Aviation forecast (TAF) for Verona Villafranca Airport

Forecast is more than 12 hours old.

Retrieved 2014/04/22 15:24 UTC (6 years ago):

TAF TAF LIPX 221400Z 2215/2324 VRB05KT 9999 SCT030 SCT070 TEMPO 2215/2218 SCT025CB SCT080 PROB30 TEMPO 2215/2218 TS